createdAt,value
2023-03-29T00:00:43.850Z,5.9
2023-03-29T00:02:47.229Z,5.9
2023-03-29T00:04:43.997Z,5.9
2023-03-29T00:06:46.777Z,5.9
2023-03-29T00:10:42.385Z,5.9
2023-03-29T00:12:41.669Z,6.0
2023-03-29T00:14:41.204Z,6.0
2023-03-29T00:16:41.152Z,6.0
2023-03-29T00:20:40.469Z,6.0
2023-03-29T00:22:41.083Z,6.0
2023-03-29T00:24:39.926Z,6.0
2023-03-29T00:26:39.063Z,6.1
2023-03-29T00:28:38.810Z,6.0
2023-03-29T00:30:38.355Z,6.0
2023-03-29T00:32:38.504Z,6.1
2023-03-29T00:34:37.892Z,6.1
2023-03-29T00:36:39.507Z,6.1
2023-03-29T00:38:38.213Z,6.1
2023-03-29T00:40:45.940Z,6.1
2023-03-29T00:42:37.042Z,6.1
2023-03-29T00:44:55.588Z,6.2
2023-03-29T00:46:35.717Z,6.2
2023-03-29T00:48:35.168Z,6.2
2023-03-29T00:50:39.219Z,6.1
2023-03-29T00:52:35.237Z,6.2
2023-03-29T00:54:36.937Z,6.2
2023-03-29T00:56:37.653Z,6.2
2023-03-29T00:58:39.707Z,6.2
2023-03-29T01:00:37.327Z,6.2
2023-03-29T01:02:33.748Z,6.2
2023-03-29T01:04:36.652Z,6.2
2023-03-29T01:06:35.728Z,6.2
2023-03-29T01:08:36.480Z,6.2
2023-03-29T01:12:35.023Z,6.2
2023-03-29T01:14:34.726Z,6.2
2023-03-29T01:16:31.989Z,6.2
2023-03-29T01:18:30.398Z,6.3
2023-03-29T01:22:40.217Z,6.3
2023-03-29T01:24:43.170Z,6.3
2023-03-29T01:28:33.321Z,6.3
2023-03-29T01:30:32.226Z,6.3
2023-03-29T01:32:34.338Z,6.3
2023-03-29T01:36:34.041Z,6.3
2023-03-29T01:38:31.062Z,6.3
2023-03-29T01:40:27.324Z,6.4
2023-03-29T01:42:39.854Z,6.4
2023-03-29T01:44:30.716Z,6.4
2023-03-29T01:46:32.190Z,6.4
2023-03-29T01:48:29.194Z,6.3
2023-03-29T01:50:36.959Z,6.4
2023-03-29T01:52:30.931Z,6.4
2023-03-29T01:54:30.046Z,6.4
2023-03-29T01:56:27.611Z,6.4
2023-03-29T01:58:27.652Z,6.4
2023-03-29T02:00:26.606Z,6.4
2023-03-29T02:02:26.371Z,6.4
2023-03-29T02:04:27.305Z,6.4
2023-03-29T02:08:22.193Z,6.5
2023-03-29T02:16:20.513Z,6.5
2023-03-29T02:18:20.136Z,6.5
2023-03-29T02:20:23.861Z,6.5
2023-03-29T02:22:23.945Z,6.5
2023-03-29T02:24:23.725Z,6.5
2023-03-29T02:26:18.585Z,6.5
2023-03-29T02:28:19.098Z,6.6
2023-03-29T02:30:20.031Z,6.6
2023-03-29T02:32:24.137Z,6.6
2023-03-29T02:34:23.466Z,6.6
2023-03-29T02:36:21.453Z,6.6
2023-03-29T02:38:16.256Z,6.6
2023-03-29T02:44:19.610Z,6.7
2023-03-29T02:48:18.326Z,6.7
2023-03-29T02:54:18.492Z,6.7
2023-03-29T02:58:14.335Z,6.7
2023-03-29T03:00:13.868Z,6.7
2023-03-29T03:02:12.718Z,6.8
2023-03-29T03:04:12.250Z,6.8
2023-03-29T03:06:12.557Z,6.8
2023-03-29T03:08:11.203Z,6.8
2023-03-29T03:10:11.635Z,6.8
2023-03-29T03:12:10.936Z,6.9
2023-03-29T03:14:10.553Z,6.9
2023-03-29T03:16:09.999Z,6.9
2023-03-29T03:18:10.080Z,6.9
2023-03-29T03:22:09.377Z,7.0
2023-03-29T03:24:09.333Z,7.0
2023-03-29T03:26:08.431Z,7.1
2023-03-29T03:28:08.273Z,7.1
2023-03-29T03:30:09.987Z,7.1
2023-03-29T03:32:07.824Z,7.1
2023-03-29T03:38:07.603Z,7.2
2023-03-29T03:40:10.731Z,7.1
2023-03-29T03:42:08.349Z,7.2
2023-03-29T03:44:05.928Z,7.2
2023-03-29T03:48:05.883Z,7.2
2023-03-29T03:50:07.584Z,7.2
2023-03-29T03:52:04.436Z,7.2
2023-03-29T03:54:04.525Z,7.2
2023-03-29T03:56:08.138Z,7.2
2023-03-29T03:58:03.806Z,7.2
2023-03-29T04:02:03.373Z,7.2
2023-03-29T04:06:02.858Z,7.2
2023-03-29T04:08:02.202Z,7.2
2023-03-29T04:10:02.122Z,7.2
2023-03-29T04:12:01.589Z,7.2
2023-03-29T04:14:01.748Z,7.3
2023-03-29T04:16:01.846Z,7.3
2023-03-29T04:18:00.640Z,7.2
2023-03-29T04:20:01.539Z,7.3
2023-03-29T04:21:59.919Z,7.2
2023-03-29T04:23:59.533Z,7.2
2023-03-29T04:25:59.639Z,7.2
2023-03-29T04:27:59.791Z,7.2
2023-03-29T04:29:58.569Z,7.0
2023-03-29T04:34:00.251Z,7.1
2023-03-29T04:35:58.043Z,7.1
2023-03-29T04:37:57.615Z,7.1
2023-03-29T04:39:59.600Z,7.0
2023-03-29T04:43:56.432Z,7.1
2023-03-29T04:45:56.870Z,7.1
2023-03-29T04:47:55.864Z,7.0
2023-03-29T04:49:56.214Z,7.1
2023-03-29T04:51:55.110Z,7.0
2023-03-29T04:55:54.613Z,7.1
2023-03-29T04:57:54.838Z,7.0
2023-03-29T04:59:54.393Z,7.0
2023-03-29T05:01:53.832Z,7.0
2023-03-29T05:03:53.713Z,7.0
2023-03-29T05:05:53.174Z,7.0
2023-03-29T05:07:53.860Z,7.0
2023-03-29T05:09:52.424Z,7.0
2023-03-29T05:11:52.056Z,7.0
2023-03-29T05:15:51.705Z,6.9
2023-03-29T05:17:51.266Z,6.9
2023-03-29T05:19:50.791Z,6.9
2023-03-29T05:21:52.405Z,6.9
2023-03-29T05:25:50.188Z,6.9
2023-03-29T05:27:49.952Z,6.9
2023-03-29T05:29:49.366Z,7.0
2023-03-29T05:31:48.918Z,7.0
2023-03-29T05:33:49.089Z,7.0
2023-03-29T05:35:48.302Z,7.1
2023-03-29T05:37:48.679Z,7.1
2023-03-29T05:39:48.610Z,7.1
2023-03-29T05:43:47.014Z,7.2
2023-03-29T05:45:46.738Z,7.2
2023-03-29T05:47:46.874Z,7.2
2023-03-29T05:51:45.959Z,7.3
2023-03-29T05:53:45.550Z,7.4
2023-03-29T05:55:45.637Z,7.4
2023-03-29T05:57:44.945Z,7.4
2023-03-29T05:59:44.377Z,7.5
2023-03-29T06:01:45.914Z,7.5
2023-03-29T06:03:45.124Z,7.5
2023-03-29T06:05:46.244Z,7.5
2023-03-29T06:07:43.242Z,7.5
2023-03-29T06:09:43.716Z,7.5
2023-03-29T06:11:44.010Z,7.5
2023-03-29T06:13:42.600Z,7.5
2023-03-29T06:15:42.378Z,7.5
2023-03-29T06:19:41.495Z,7.6
2023-03-29T06:21:41.237Z,7.6
2023-03-29T06:23:40.850Z,7.6
2023-03-29T06:27:40.559Z,7.7
2023-03-29T06:29:40.223Z,7.7
2023-03-29T06:33:42.199Z,7.7
2023-03-29T06:35:41.942Z,7.7
2023-03-29T06:37:40.131Z,7.7
2023-03-29T06:39:40.028Z,7.7
2023-03-29T06:41:38.519Z,7.8
2023-03-29T06:43:38.140Z,7.8
2023-03-29T06:45:38.437Z,7.8
2023-03-29T06:47:37.531Z,7.8
2023-03-29T06:49:36.971Z,7.8
2023-03-29T06:51:36.888Z,7.9
2023-03-29T06:53:36.242Z,7.9
2023-03-29T06:55:35.905Z,7.9
2023-03-29T06:57:35.748Z,7.9
2023-03-29T06:59:35.370Z,8.0
2023-03-29T07:01:36.347Z,8.0
2023-03-29T07:03:35.389Z,8.1
2023-03-29T07:05:35.490Z,8.2
2023-03-29T07:07:43.964Z,8.2
2023-03-29T07:09:35.243Z,8.3
2023-03-29T07:11:34.812Z,8.3
2023-03-29T07:13:33.244Z,8.4
2023-03-29T07:15:35.044Z,8.4
2023-03-29T07:17:33.090Z,8.5
2023-03-29T07:19:33.074Z,8.5
2023-03-29T07:21:33.382Z,8.5
2023-03-29T07:23:31.950Z,8.6
2023-03-29T07:25:32.928Z,8.6
2023-03-29T07:27:31.846Z,8.7
2023-03-29T07:31:31.992Z,8.8
2023-03-29T07:33:30.305Z,8.8
2023-03-29T07:35:30.033Z,8.8
2023-03-29T07:37:29.917Z,8.8
2023-03-29T07:41:29.337Z,9.0
2023-03-29T07:43:29.335Z,9.1
2023-03-29T07:45:28.823Z,9.1
2023-03-29T07:47:28.865Z,9.1
2023-03-29T07:49:28.086Z,9.2
2023-03-29T07:51:27.589Z,9.3
2023-03-29T07:53:28.595Z,9.3
2023-03-29T07:55:27.656Z,9.3
2023-03-29T07:57:27.522Z,9.4
2023-03-29T07:59:26.603Z,9.4
2023-03-29T08:01:26.259Z,9.4
2023-03-29T08:05:40.116Z,9.3
2023-03-29T08:09:26.238Z,9.5
2023-03-29T08:13:24.867Z,9.6
2023-03-29T08:15:24.283Z,9.5
2023-03-29T08:17:24.333Z,9.5
2023-03-29T08:19:23.808Z,9.4
2023-03-29T08:21:23.588Z,9.5
2023-03-29T08:23:23.167Z,9.6
2023-03-29T08:25:23.132Z,9.6
2023-03-29T08:29:22.901Z,9.6
2023-03-29T08:31:22.167Z,9.7
2023-03-29T08:33:21.860Z,9.7
2023-03-29T08:37:23.612Z,9.6
2023-03-29T08:39:21.348Z,9.7
2023-03-29T08:41:35.031Z,9.7
2023-03-29T08:43:34.177Z,9.7
2023-03-29T08:45:28.477Z,9.8
2023-03-29T08:47:24.645Z,9.8
2023-03-29T08:49:20.890Z,9.8
2023-03-29T08:51:23.464Z,9.8
2023-03-29T08:53:23.640Z,9.8
2023-03-29T08:55:27.151Z,9.8
2023-03-29T08:57:24.779Z,9.8
2023-03-29T08:59:23.439Z,9.9
2023-03-29T09:01:19.361Z,9.9
2023-03-29T09:03:21.389Z,10.0
2023-03-29T09:05:23.449Z,10.1
2023-03-29T09:07:17.653Z,10.2
2023-03-29T09:09:19.942Z,10.2
2023-03-29T09:13:29.379Z,10.2
2023-03-29T09:15:22.800Z,10.2
2023-03-29T09:17:29.704Z,10.3
2023-03-29T09:19:24.598Z,10.4
2023-03-29T09:21:22.196Z,10.6
2023-03-29T09:23:29.281Z,10.6
2023-03-29T09:25:20.658Z,10.6
2023-03-29T09:27:22.809Z,10.7
2023-03-29T09:29:28.751Z,10.7
2023-03-29T09:31:20.494Z,10.8
2023-03-29T09:33:22.211Z,10.9
2023-03-29T09:35:20.345Z,11.1
2023-03-29T09:37:24.919Z,11.2
2023-03-29T09:41:20.880Z,11.2
2023-03-29T09:43:15.100Z,11.3
2023-03-29T09:47:18.138Z,11.3
2023-03-29T09:49:17.956Z,11.3
2023-03-29T09:51:12.800Z,11.3
2023-03-29T09:53:13.849Z,11.3
2023-03-29T09:57:12.536Z,11.3
2023-03-29T09:59:11.218Z,11.3
2023-03-29T10:01:13.600Z,11.3
2023-03-29T10:03:17.383Z,11.4
2023-03-29T10:05:15.675Z,11.5
2023-03-29T10:07:17.798Z,11.6
2023-03-29T10:09:16.238Z,11.8
2023-03-29T10:11:16.507Z,11.9
2023-03-29T10:13:15.610Z,12.0
2023-03-29T10:15:26.720Z,12.2
2023-03-29T10:17:14.827Z,12.2
2023-03-29T10:19:19.570Z,12.2
2023-03-29T10:21:13.448Z,12.5
2023-03-29T10:23:17.495Z,12.5
2023-03-29T10:25:13.192Z,12.6
2023-03-29T10:29:07.792Z,12.7
2023-03-29T10:31:17.889Z,12.9
2023-03-29T10:33:16.565Z,12.9
2023-03-29T10:35:09.889Z,13.0
2023-03-29T10:37:11.344Z,13.1
2023-03-29T10:39:09.780Z,13.2
2023-03-29T10:41:10.665Z,13.3
2023-03-29T10:43:13.494Z,13.4
2023-03-29T10:45:20.473Z,13.4
2023-03-29T10:47:09.012Z,13.4
2023-03-29T10:49:17.560Z,13.4
2023-03-29T10:51:06.569Z,13.5
2023-03-29T10:55:06.408Z,13.8
2023-03-29T10:57:08.295Z,13.8
2023-03-29T10:59:20.956Z,13.7
2023-03-29T11:01:08.425Z,13.8
2023-03-29T11:03:19.481Z,13.7
2023-03-29T11:05:16.788Z,13.7
2023-03-29T11:07:21.646Z,13.8
2023-03-29T11:09:14.488Z,14.0
2023-03-29T11:11:15.320Z,14.1
2023-03-29T11:13:12.839Z,14.1
2023-03-29T11:15:15.735Z,14.1
2023-03-29T11:19:18.331Z,14.0
2023-03-29T11:21:13.176Z,14.0
2023-03-29T11:23:17.094Z,14.0
2023-03-29T11:25:19.084Z,14.1
2023-03-29T11:27:15.573Z,14.2
2023-03-29T11:29:10.765Z,14.2
2023-03-29T11:35:17.600Z,14.1
2023-03-29T11:37:14.247Z,14.1
2023-03-29T11:39:11.156Z,14.1
2023-03-29T11:41:09.974Z,14.2
2023-03-29T11:43:04.343Z,14.2
2023-03-29T11:45:03.893Z,14.3
2023-03-29T11:47:05.360Z,14.3
2023-03-29T11:49:07.971Z,14.3
2023-03-29T11:51:05.857Z,14.4
2023-03-29T11:53:04.297Z,14.3
2023-03-29T11:55:05.982Z,14.4
2023-03-29T11:57:06.424Z,14.3
2023-03-29T11:59:06.413Z,14.2
2023-03-29T12:01:05.230Z,14.3
2023-03-29T12:03:06.009Z,14.2
2023-03-29T12:07:10.289Z,14.3
2023-03-29T12:09:04.345Z,14.3
2023-03-29T12:11:06.241Z,14.5
2023-03-29T12:13:02.362Z,14.7
2023-03-29T12:15:04.620Z,14.7
2023-03-29T12:17:01.318Z,14.7
2023-03-29T12:21:00.964Z,14.8
2023-03-29T12:24:59.735Z,14.9
2023-03-29T12:27:11.252Z,14.9
2023-03-29T12:31:08.254Z,14.9
2023-03-29T12:33:10.304Z,14.9
2023-03-29T12:35:13.266Z,14.8
2023-03-29T12:37:09.834Z,14.9
2023-03-29T12:43:04.613Z,15.0
2023-03-29T12:44:58.600Z,15.1
2023-03-29T12:46:58.376Z,15.1
2023-03-29T12:51:00.382Z,15.0
2023-03-29T12:54:58.176Z,15.1
2023-03-29T12:56:59.291Z,15.0
2023-03-29T12:59:05.842Z,15.0
2023-03-29T13:01:05.552Z,15.0
2023-03-29T13:03:01.966Z,15.0
2023-03-29T13:04:56.640Z,15.1
2023-03-29T13:09:00.908Z,15.2
2023-03-29T13:12:54.496Z,15.4
2023-03-29T13:14:56.991Z,15.3
2023-03-29T13:19:05.619Z,15.2
2023-03-29T13:21:03.189Z,15.2
2023-03-29T13:23:08.543Z,15.2
2023-03-29T13:25:07.664Z,15.3
2023-03-29T13:27:03.324Z,15.4
2023-03-29T13:29:09.736Z,15.4
2023-03-29T13:30:58.718Z,15.2
2023-03-29T13:33:06.605Z,15.1
2023-03-29T13:34:59.721Z,15.2
2023-03-29T13:37:02.775Z,15.2
2023-03-29T13:42:57.957Z,15.2
2023-03-29T13:45:02.322Z,15.3
2023-03-29T13:47:05.570Z,15.3
2023-03-29T13:48:57.052Z,15.2
2023-03-29T13:50:54.678Z,15.3
2023-03-29T13:53:01.162Z,15.4
2023-03-29T13:54:57.066Z,15.4
2023-03-29T13:57:00.423Z,15.5
2023-03-29T14:00:58.739Z,15.5
2023-03-29T14:02:54.173Z,15.6
2023-03-29T14:04:52.445Z,15.6
2023-03-29T14:06:54.682Z,15.7
2023-03-29T14:08:52.054Z,15.8
2023-03-29T14:10:52.931Z,15.7
2023-03-29T14:12:52.734Z,15.8
2023-03-29T14:14:59.253Z,15.9
2023-03-29T14:16:50.966Z,16.1
2023-03-29T14:18:51.814Z,16.0
2023-03-29T14:22:51.213Z,16.2
2023-03-29T14:26:53.091Z,16.1
2023-03-29T14:28:51.636Z,16.1
2023-03-29T14:34:50.054Z,16.2
2023-03-29T14:36:52.352Z,16.2
2023-03-29T14:38:51.385Z,16.3
2023-03-29T14:40:50.061Z,16.2
2023-03-29T14:44:50.243Z,16.4
2023-03-29T14:46:49.451Z,16.3
2023-03-29T14:52:52.188Z,16.4
2023-03-29T14:54:52.675Z,16.5
2023-03-29T14:58:48.983Z,16.4
2023-03-29T15:00:50.849Z,16.5
2023-03-29T15:02:50.142Z,16.5
2023-03-29T15:04:55.098Z,16.5
2023-03-29T15:09:03.638Z,16.4
2023-03-29T15:12:49.115Z,16.4
2023-03-29T15:14:49.627Z,16.3
2023-03-29T15:18:50.792Z,16.4
2023-03-29T15:22:53.393Z,16.4
2023-03-29T15:24:48.828Z,16.2
2023-03-29T15:26:58.544Z,16.2
2023-03-29T15:30:57.368Z,16.2
2023-03-29T15:32:47.070Z,16.2
2023-03-29T15:34:57.594Z,16.2
2023-03-29T15:36:47.172Z,16.2
2023-03-29T15:38:48.564Z,16.2
2023-03-29T15:42:46.745Z,16.1
2023-03-29T15:44:46.415Z,16.2
2023-03-29T15:46:46.407Z,16.2
2023-03-29T15:48:46.467Z,16.2
2023-03-29T15:50:46.801Z,16.1
2023-03-29T15:52:46.039Z,16.1
2023-03-29T15:54:46.077Z,16.1
2023-03-29T15:56:50.250Z,16.1
2023-03-29T15:58:46.465Z,16.1
2023-03-29T16:00:50.121Z,16.1
2023-03-29T16:04:45.608Z,16.1
2023-03-29T16:06:49.126Z,16.0
2023-03-29T16:08:45.393Z,16.0
2023-03-29T16:10:46.046Z,16.0
2023-03-29T16:12:45.186Z,16.0
2023-03-29T16:14:45.387Z,15.9
2023-03-29T16:16:45.531Z,15.9
2023-03-29T16:20:45.609Z,15.8
2023-03-29T16:22:44.766Z,15.8
2023-03-29T16:24:44.627Z,15.8
2023-03-29T16:26:45.198Z,15.8
2023-03-29T16:30:44.277Z,15.7
2023-03-29T16:32:45.129Z,15.7
2023-03-29T16:34:43.916Z,15.7
2023-03-29T16:36:44.397Z,15.7
2023-03-29T16:40:44.144Z,15.6
2023-03-29T16:42:43.496Z,15.6
2023-03-29T16:44:43.900Z,15.6
2023-03-29T16:48:43.483Z,15.6
2023-03-29T16:50:43.320Z,15.6
2023-03-29T16:52:43.821Z,15.5
2023-03-29T16:54:42.802Z,15.5
2023-03-29T16:56:42.915Z,15.4
2023-03-29T16:58:42.795Z,15.4
2023-03-29T17:00:45.632Z,15.3
2023-03-29T17:02:43.109Z,15.3
2023-03-29T17:04:42.422Z,15.3
2023-03-29T17:06:42.335Z,15.3
2023-03-29T17:08:42.417Z,15.2
2023-03-29T17:10:42.272Z,15.2
2023-03-29T17:12:42.114Z,15.2
2023-03-29T17:16:41.584Z,14.9
2023-03-29T17:18:41.318Z,15.1
2023-03-29T17:20:41.300Z,15.1
2023-03-29T17:22:41.039Z,15.0
2023-03-29T17:24:41.069Z,15.0
2023-03-29T17:26:41.733Z,14.9
2023-03-29T17:28:42.484Z,14.9
2023-03-29T17:30:40.658Z,14.9
2023-03-29T17:32:40.526Z,14.8
2023-03-29T17:36:40.360Z,14.7
2023-03-29T17:38:39.825Z,14.7
2023-03-29T17:40:40.116Z,14.7
2023-03-29T17:42:39.644Z,14.7
2023-03-29T17:44:39.514Z,14.7
2023-03-29T17:46:39.440Z,14.7
2023-03-29T17:50:39.268Z,14.5
2023-03-29T17:52:39.001Z,14.6
2023-03-29T17:54:38.632Z,14.6
2023-03-29T17:56:38.914Z,14.4
2023-03-29T17:58:38.363Z,14.6
2023-03-29T18:02:39.665Z,14.4
2023-03-29T18:04:37.900Z,14.4
2023-03-29T18:06:37.890Z,14.3
2023-03-29T18:12:37.575Z,14.2
2023-03-29T18:14:37.427Z,14.2
2023-03-29T18:16:37.227Z,14.1
2023-03-29T18:18:37.475Z,14.0
2023-03-29T18:20:36.879Z,14.0
2023-03-29T18:22:37.001Z,14.1
2023-03-29T18:26:36.644Z,14.0
2023-03-29T18:30:36.033Z,13.8
2023-03-29T18:34:35.882Z,13.8
2023-03-29T18:36:36.062Z,13.8
2023-03-29T18:38:36.305Z,13.7
2023-03-29T18:42:35.440Z,13.7
2023-03-29T18:45:21.767Z,13.7
2023-03-29T18:56:34.617Z,13.4
2023-03-29T18:58:34.277Z,13.3
2023-03-29T19:00:33.820Z,13.4
2023-03-29T19:02:33.791Z,13.3
2023-03-29T19:04:33.680Z,13.2
2023-03-29T19:06:33.429Z,13.3
2023-03-29T19:10:35.196Z,13.1
2023-03-29T19:12:33.156Z,13.1
2023-03-29T19:14:32.864Z,13.2
2023-03-29T19:16:33.055Z,13.1
2023-03-29T19:18:32.554Z,13.1
2023-03-29T19:20:34.492Z,13.1
2023-03-29T19:24:32.510Z,13.1
2023-03-29T19:26:32.427Z,13.1
2023-03-29T19:28:32.118Z,13.0
2023-03-29T19:30:34.916Z,13.0
2023-03-29T19:32:33.640Z,13.1
2023-03-29T19:34:31.500Z,12.9
2023-03-29T19:36:31.538Z,13.0
2023-03-29T19:38:30.827Z,13.0
2023-03-29T19:40:30.596Z,13.0
2023-03-29T19:42:30.494Z,13.0
2023-03-29T19:44:30.573Z,13.0
2023-03-29T19:46:30.001Z,13.0
2023-03-29T19:48:30.222Z,12.9
2023-03-29T19:50:30.543Z,12.9
2023-03-29T19:52:30.164Z,12.9
2023-03-29T19:54:29.733Z,12.9
2023-03-29T19:56:29.165Z,12.9
2023-03-29T19:58:29.313Z,12.9
2023-03-29T20:02:28.818Z,12.8
2023-03-29T20:04:28.637Z,12.9
2023-03-29T20:06:28.077Z,12.9
2023-03-29T20:08:28.001Z,12.8
2023-03-29T20:12:27.680Z,12.8
2023-03-29T20:14:28.422Z,12.7
2023-03-29T20:16:28.741Z,12.7
2023-03-29T20:18:27.087Z,12.7
2023-03-29T20:20:27.446Z,12.7
2023-03-29T20:22:29.618Z,12.7
2023-03-29T20:24:26.537Z,12.7
2023-03-29T20:26:27.073Z,12.7
2023-03-29T20:28:26.300Z,12.7
2023-03-29T20:30:25.979Z,12.7
2023-03-29T20:32:25.951Z,12.7
2023-03-29T20:36:25.621Z,12.8
2023-03-29T20:38:25.689Z,12.7
2023-03-29T20:40:24.994Z,12.8
2023-03-29T20:42:27.721Z,12.7
2023-03-29T20:44:27.769Z,12.7
2023-03-29T20:46:32.007Z,12.7
2023-03-29T20:48:29.162Z,12.7
2023-03-29T20:50:25.721Z,12.7
2023-03-29T20:52:23.952Z,12.7
2023-03-29T20:54:24.761Z,12.7
2023-03-29T20:56:25.148Z,12.7
2023-03-29T20:58:26.232Z,12.7
2023-03-29T21:00:24.059Z,12.8
2023-03-29T21:04:23.800Z,12.7
2023-03-29T21:06:23.740Z,12.7
2023-03-29T21:08:24.072Z,12.7
2023-03-29T21:12:22.561Z,12.7
2023-03-29T21:22:21.069Z,12.8
2023-03-29T21:24:20.954Z,13.0
2023-03-29T21:26:21.697Z,12.9
2023-03-29T21:30:20.169Z,13.1
2023-03-29T21:32:19.796Z,13.0
2023-03-29T21:34:19.973Z,13.1
2023-03-29T21:36:19.605Z,13.1
2023-03-29T21:38:19.439Z,13.1
2023-03-29T21:40:19.073Z,13.1
2023-03-29T21:42:19.044Z,13.1
2023-03-29T21:44:18.638Z,13.1
2023-03-29T21:46:18.767Z,13.2
2023-03-29T21:48:18.668Z,13.3
2023-03-29T21:50:18.292Z,13.3
2023-03-29T21:52:17.836Z,13.3
2023-03-29T21:54:17.791Z,13.4
2023-03-29T21:56:17.577Z,13.4
2023-03-29T21:58:18.653Z,13.4
2023-03-29T22:00:17.729Z,13.4
2023-03-29T22:02:17.174Z,13.4
2023-03-29T22:04:29.207Z,13.5
2023-03-29T22:06:16.718Z,13.5
2023-03-29T22:08:16.730Z,13.5
2023-03-29T22:10:21.573Z,13.5
2023-03-29T22:12:17.645Z,13.6
2023-03-29T22:14:16.120Z,13.5
2023-03-29T22:16:17.267Z,13.4
2023-03-29T22:18:15.699Z,13.4
2023-03-29T22:20:17.409Z,13.4
2023-03-29T22:22:16.518Z,13.4
2023-03-29T22:24:15.883Z,13.4
2023-03-29T22:26:16.930Z,13.3
2023-03-29T22:28:14.973Z,13.4
2023-03-29T22:30:16.045Z,13.3
2023-03-29T22:32:14.565Z,13.2
2023-03-29T22:34:14.612Z,13.3
2023-03-29T22:36:16.581Z,13.2
2023-03-29T22:38:14.135Z,13.2
2023-03-29T22:42:13.997Z,13.1
2023-03-29T22:44:13.546Z,13.1
2023-03-29T22:46:13.790Z,13.1
2023-03-29T22:48:13.477Z,13.1
2023-03-29T22:50:12.968Z,13.1
2023-03-29T22:52:12.853Z,13.1
2023-03-29T22:54:12.656Z,13.1
2023-03-29T22:56:12.729Z,13.1
2023-03-29T22:58:12.612Z,13.1
2023-03-29T23:00:12.794Z,13.1
2023-03-29T23:02:11.901Z,13.1
2023-03-29T23:04:11.634Z,13.1
2023-03-29T23:08:11.294Z,13.2
2023-03-29T23:10:11.722Z,13.1
2023-03-29T23:12:10.870Z,13.1
2023-03-29T23:14:10.836Z,13.1
2023-03-29T23:16:10.545Z,13.1
2023-03-29T23:18:12.071Z,13.2
2023-03-29T23:22:10.713Z,13.2
2023-03-29T23:24:09.756Z,13.2
2023-03-29T23:26:10.125Z,13.3
2023-03-29T23:30:10.806Z,13.4
2023-03-29T23:32:08.945Z,13.4
2023-03-29T23:34:09.562Z,13.4
2023-03-29T23:36:11.506Z,13.6
2023-03-29T23:38:08.850Z,13.6
2023-03-29T23:40:10.693Z,13.6
2023-03-29T23:42:08.034Z,13.6
2023-03-29T23:46:10.184Z,13.8
2023-03-29T23:48:07.704Z,13.8
2023-03-29T23:50:08.763Z,13.8
2023-03-29T23:52:07.279Z,13.8
2023-03-29T23:54:07.219Z,13.8
2023-03-29T23:56:08.084Z,13.8
2023-03-29T23:58:07.229Z,13.9
